Time;durP1;ratioP1;P1;durP2;ratioP2;P2;SDS_P1;SDS_P2;PMS_P1;PMS_P2;Temp;Humidity;BMP_temperature;BMP_pressure;BME280_temperature;BME280_humidity;BME280_pressure;Samples;Min_cycle;Max_cycle;Signal;HPM_P1;HPM_P2
2022/04/22 00:02:05;;;;;;;10.27;9.77;;;;;;;8.86;100.00;92677.66;5089994;28;20284;-86
2022/04/22 00:04:30;;;;;;;11.17;10.47;;;;;;;8.95;100.00;92673.47;5089185;28;20181;-83
2022/04/22 00:06:55;;;;;;;10.13;9.43;;;;;;;8.86;100.00;92692.50;5087588;28;20232;-84
2022/04/22 00:09:21;;;;;;;11.40;10.63;;;;;;;8.89;100.00;92686.75;5089950;28;20204;-85
2022/04/22 00:11:46;;;;;;;10.57;10.07;;;;;;;8.59;100.00;92650.44;5089009;28;20633;-82
2022/04/22 00:14:12;;;;;;;11.57;10.43;;;;;;;8.82;100.00;92670.66;5088614;28;20289;-84
2022/04/22 00:16:37;;;;;;;10.83;10.03;;;;;;;8.59;100.00;92656.41;5065095;28;20791;-85
2022/04/22 00:19:03;;;;;;;10.70;10.10;;;;;;;8.74;100.00;92658.19;5088020;28;20216;-85
2022/04/22 00:21:28;;;;;;;11.20;10.60;;;;;;;8.54;100.00;92619.22;5087407;28;20229;-85
2022/04/22 00:23:54;;;;;;;11.30;10.60;;;;;;;8.60;100.00;92634.56;5088384;28;20197;-84
2022/04/22 00:26:20;;;;;;;10.67;10.17;;;;;;;8.54;100.00;92601.03;5088361;28;20225;-85
2022/04/22 00:28:46;;;;;;;10.80;10.10;;;;;;;8.61;100.00;92630.13;5087105;28;20187;-85
2022/04/22 00:31:11;;;;;;;10.90;10.30;;;;;;;8.82;100.00;92639.44;5089191;28;20221;-85
2022/04/22 00:33:37;;;;;;;11.53;10.83;;;;;;;8.74;100.00;92642.56;5071593;28;20219;-85
2022/04/22 00:36:03;;;;;;;12.20;11.30;;;;;;;8.66;100.00;92633.50;5087592;28;20259;-81
2022/04/22 00:38:29;;;;;;;12.70;11.77;;;;;;;8.59;100.00;92608.81;5089832;28;20244;-85
2022/04/22 00:40:55;;;;;;;11.43;10.63;;;;;;;8.79;100.00;92638.16;5088458;28;20286;-85
2022/04/22 00:43:25;;;;;;;11.20;10.50;;;;;;;8.63;100.00;92610.63;5072122;28;20181;-84
2022/04/22 00:45:53;;;;;;;10.30;9.67;;;;;;;8.64;100.00;92621.81;5086457;28;20235;-84
2022/04/22 00:48:20;;;;;;;10.73;10.03;;;;;;;8.75;100.00;92633.72;5089271;28;20192;-85
2022/04/22 00:50:46;;;;;;;11.73;10.83;;;;;;;8.62;100.00;92621.28;5089066;28;20225;-84
2022/04/22 00:53:13;;;;;;;11.90;11.13;;;;;;;8.69;100.00;92627.75;5088683;28;20185;-85
2022/04/22 00:55:44;;;;;;;12.07;11.07;;;;;;;8.71;100.00;92623.06;5089042;28;20231;-85
2022/04/22 00:58:11;;;;;;;12.67;11.80;;;;;;;8.72;100.00;92618.63;5063291;28;20192;-84
2022/04/22 01:00:38;;;;;;;11.63;10.93;;;;;;;8.69;100.00;92619.16;5087934;28;20251;-84
2022/04/22 01:03:05;;;;;;;11.80;11.00;;;;;;;8.62;100.00;92600.47;5087751;28;20189;-81
2022/04/22 01:11:00;;;;;;;11.33;10.43;;;;;;;8.36;100.00;92593.81;5087750;28;20254;-84
2022/04/22 01:13:26;;;;;;;10.70;10.10;;;;;;;8.36;100.00;92578.19;5088210;28;20205;-85
2022/04/22 01:15:52;;;;;;;11.23;10.53;;;;;;;8.35;100.00;92590.41;5087996;28;20236;-83
2022/04/22 01:18:17;;;;;;;11.50;10.50;;;;;;;8.36;100.00;92580.81;5070981;28;20189;-84
2022/04/22 01:20:43;;;;;;;11.63;10.83;;;;;;;8.38;100.00;92565.69;5086748;28;20232;-84
2022/04/22 01:23:09;;;;;;;10.60;10.00;;;;;;;8.42;100.00;92564.13;5086507;28;20196;-84
2022/04/22 01:25:35;;;;;;;11.13;10.43;;;;;;;8.29;100.00;92541.28;5087642;28;20246;-82
2022/04/22 01:28:01;;;;;;;11.53;10.80;;;;;;;8.44;100.00;92530.81;5071117;28;20184;-85
2022/04/22 01:30:27;;;;;;;12.27;11.17;;;;;;;8.49;100.00;92536.78;5087102;28;20191;-84
2022/04/22 01:32:56;;;;;;;10.27;9.67;;;;;;;8.39;100.00;92517.84;5089165;28;20265;-85
2022/04/22 01:35:24;;;;;;;10.93;10.43;;;;;;;8.42;100.00;92523.25;5087362;28;20227;-85
2022/04/22 01:37:50;;;;;;;9.67;9.07;;;;;;;8.41;100.00;92513.13;5088083;28;20215;-85
2022/04/22 01:40:15;;;;;;;10.47;9.87;;;;;;;8.24;100.00;92497.09;5088421;28;20284;-84
2022/04/22 01:42:42;;;;;;;9.77;9.37;;;;;;;8.19;100.00;92529.06;5073891;28;20201;-84
2022/04/22 01:45:09;;;;;;;9.37;8.97;;;;;;;8.11;100.00;92499.19;5091093;28;20282;-85
2022/04/22 01:47:35;;;;;;;10.23;9.73;;;;;;;8.20;100.00;92513.19;5091695;28;20212;-85
2022/04/22 01:50:01;;;;;;;10.10;9.60;;;;;;;8.29;100.00;92520.47;5091487;28;20241;-84
2022/04/22 01:52:27;;;;;;;8.83;8.43;;;;;;;8.27;100.00;92519.94;5073854;28;20235;-84
2022/04/22 01:54:55;;;;;;;9.87;9.17;;;;;;;8.30;100.00;92537.63;5091569;28;20209;-82
2022/04/22 01:57:23;;;;;;;10.93;10.07;;;;;;;8.13;100.00;92512.72;5090226;28;20240;-85
2022/04/22 01:59:49;;;;;;;10.83;10.13;;;;;;;8.28;100.00;92534.53;5091899;28;20181;-82
2022/04/22 02:02:18;;;;;;;10.70;10.00;;;;;;;8.27;100.00;92545.97;5091352;28;20237;-84
2022/04/22 02:04:45;;;;;;;9.70;9.27;;;;;;;8.16;100.00;92545.97;5090033;28;21452;-84
2022/04/22 02:07:11;;;;;;;9.90;9.40;;;;;;;7.96;100.00;92525.25;5090447;28;20320;-84
2022/04/22 02:09:36;;;;;;;9.97;9.43;;;;;;;7.88;100.00;92543.97;5092298;28;20200;-89
2022/04/22 02:12:03;;;;;;;9.47;8.97;;;;;;;7.93;100.00;92580.34;5071873;28;20246;-85
2022/04/22 02:14:29;;;;;;;10.30;9.67;;;;;;;7.97;100.00;92590.97;5091058;28;20242;-85
2022/04/22 02:16:55;;;;;;;10.50;10.00;;;;;;;8.03;100.00;92595.91;5090080;28;20240;-85
2022/04/22 02:19:20;;;;;;;10.63;9.93;;;;;;;8.07;100.00;92596.97;5074330;28;20211;-85
2022/04/22 02:21:46;;;;;;;10.10;9.50;;;;;;;8.07;100.00;92609.19;5090774;28;20236;-84
2022/04/22 02:24:12;;;;;;;10.83;10.10;;;;;;;8.08;100.00;92601.09;5090284;28;20222;-84
2022/04/22 02:29:23;;;;;;;11.70;11.00;;;;;;;8.04;100.00;92578.50;5091401;28;20203;-84
2022/04/22 02:31:53;;;;;;;12.07;11.17;;;;;;;8.03;100.00;92569.91;5090172;28;20224;-84
2022/04/22 02:34:23;;;;;;;11.17;10.47;;;;;;;8.15;100.00;92567.03;5091361;28;20323;-84
2022/04/22 02:36:49;;;;;;;12.23;11.27;;;;;;;8.18;100.00;92563.91;5090497;28;20266;-82
2022/04/22 02:39:15;;;;;;;11.50;10.80;;;;;;;8.14;100.00;92557.66;5090672;28;20197;-84
2022/04/22 02:47:09;;;;;;;12.33;11.43;;;;;;;8.15;100.00;92554.81;5089843;28;20274;-85
2022/04/22 02:49:34;;;;;;;12.27;11.37;;;;;;;8.11;100.00;92561.59;5090088;28;20189;-85
2022/04/22 02:51:59;;;;;;;11.07;10.27;;;;;;;8.14;100.00;92553.25;5089276;28;20228;-84
2022/04/22 02:54:25;;;;;;;12.17;11.37;;;;;;;7.99;100.00;92547.31;5091142;28;20243;-85
2022/04/22 02:56:52;;;;;;;11.03;10.33;;;;;;;8.04;100.00;92553.28;5089809;28;20216;-84
2022/04/22 02:59:18;;;;;;;11.33;10.63;;;;;;;8.00;100.00;92541.06;5089361;28;20184;-85
2022/04/22 03:01:45;;;;;;;10.67;9.87;;;;;;;7.86;100.00;92553.09;5090339;28;20258;-84
2022/04/22 03:04:10;;;;;;;11.57;10.87;;;;;;;7.87;100.00;92519.03;5072933;28;20177;-85
2022/04/22 03:06:36;;;;;;;10.97;10.17;;;;;;;7.81;100.00;92538.25;5089370;28;20243;-85
2022/04/22 03:09:01;;;;;;;10.80;10.17;;;;;;;7.95;100.00;92546.31;5089674;28;20185;-84
2022/04/22 03:11:27;;;;;;;10.27;9.57;;;;;;;8.01;100.00;92538.22;5089836;28;20224;-85
2022/04/22 03:13:53;;;;;;;11.73;10.83;;;;;;;8.05;100.00;92557.44;5072470;28;20220;-85
2022/04/22 03:16:19;;;;;;;10.67;9.87;;;;;;;8.01;100.00;92540.84;5090155;28;20233;-83
2022/04/22 03:18:45;;;;;;;10.40;9.90;;;;;;;8.11;100.00;92561.59;5088781;28;20211;-85
2022/04/22 03:21:11;;;;;;;9.87;9.30;;;;;;;8.22;100.00;92561.56;5089990;28;20248;-85
2022/04/22 03:23:36;;;;;;;9.97;9.47;;;;;;;8.16;100.00;92558.97;5090171;28;20189;-85
2022/04/22 03:26:01;;;;;;;10.03;9.20;;;;;;;7.95;100.00;92554.84;5088712;28;20227;-83
2022/04/22 03:28:27;;;;;;;8.67;8.37;;;;;;;8.10;100.00;92562.63;5089372;28;20204;-85
2022/04/22 03:30:52;;;;;;;10.10;9.33;;;;;;;8.05;100.00;92544.44;5089515;28;20305;-86
2022/04/22 03:33:19;;;;;;;9.40;8.67;;;;;;;8.12;100.00;92568.34;5089885;28;20219;-84
2022/04/22 03:35:50;;;;;;;9.70;9.23;;;;;;;7.96;100.00;92553.84;5089677;28;20232;-82
2022/04/22 03:38:16;;;;;;;9.70;9.20;;;;;;;7.89;100.00;92548.13;5089206;28;20242;-83
2022/04/22 03:40:42;;;;;;;9.40;9.00;;;;;;;8.02;100.00;92578.78;5088669;28;20224;-85
2022/04/22 03:43:07;;;;;;;11.53;10.37;;;;;;;8.15;100.00;92593.03;5089681;28;20840;-85
2022/04/22 03:45:33;;;;;;;12.27;11.17;;;;;;;8.10;100.00;92575.63;5089489;28;20228;-85
2022/04/22 03:47:59;;;;;;;11.43;10.63;;;;;;;8.28;100.00;92586.53;5088179;28;20181;-83
2022/04/22 03:50:28;;;;;;;9.23;8.63;;;;;;;8.22;100.00;92587.56;5071940;28;20239;-86
2022/04/22 03:52:54;;;;;;;9.80;9.30;;;;;;;8.16;100.00;92590.19;5088534;28;20204;-85
2022/04/22 03:55:20;;;;;;;10.70;10.20;;;;;;;8.40;100.00;92587.03;5089489;28;20208;-84
2022/04/22 04:00:29;;;;;;;10.50;10.00;;;;;;;8.39;100.00;92583.63;5088260;28;20227;-85
2022/04/22 04:02:55;;;;;;;10.90;10.00;;;;;;;8.25;100.00;92589.66;5088902;28;20189;-86
2022/04/22 04:05:20;;;;;;;11.97;11.27;;;;;;;8.35;100.00;92593.03;5087423;28;20173;-85
2022/04/22 04:07:46;;;;;;;12.87;11.80;;;;;;;8.27;100.00;92583.16;5088927;28;20753;-85
2022/04/22 04:15:59;;;;;;;12.30;11.43;;;;;;;8.24;100.00;92582.91;5088914;28;20227;-85
2022/04/22 04:18:33;;;;;;;12.63;11.43;;;;;;;8.27;100.00;92579.75;5088135;28;20204;-84
2022/04/22 04:23:44;;;;;;;12.53;11.67;;;;;;;8.32;100.00;92584.97;5088896;28;20203;-81
2022/04/22 04:26:10;;;;;;;12.97;11.87;;;;;;;8.34;100.00;92560.25;5087818;28;20248;-85
2022/04/22 04:28:36;;;;;;;14.43;13.20;;;;;;;8.41;100.00;92575.56;5088772;28;20189;-85
2022/04/22 04:31:02;;;;;;;12.67;11.57;;;;;;;8.48;100.00;92571.66;5088764;28;20259;-85
2022/04/22 04:33:29;;;;;;;13.87;12.80;;;;;;;8.53;100.00;92568.25;5086916;28;20176;-86
2022/04/22 04:35:55;;;;;;;12.83;11.73;;;;;;;8.48;100.00;92561.25;5086779;28;20225;-86
2022/04/22 04:38:20;;;;;;;13.90;12.47;;;;;;;8.47;100.00;92533.66;5072195;28;20319;-87
2022/04/22 04:40:46;;;;;;;12.40;11.43;;;;;;;8.65;100.00;92556.50;5088052;28;20236;-84
2022/04/22 04:43:12;;;;;;;13.70;12.37;;;;;;;8.59;100.00;92541.16;5088792;28;20172;-84
2022/04/22 04:45:38;;;;;;;12.93;11.93;;;;;;;8.48;100.00;92542.25;5087484;28;20239;-84
2022/04/22 04:48:04;;;;;;;13.90;12.57;;;;;;;8.52;100.00;92549.25;5089191;28;20192;-86
2022/04/22 04:50:30;;;;;;;12.50;11.57;;;;;;;8.38;100.00;92539.69;5089063;28;20216;-86
2022/04/22 04:52:57;;;;;;;13.10;12.10;;;;;;;8.34;100.00;92538.66;5087772;28;20181;-84
2022/04/22 04:55:22;;;;;;;13.80;12.80;;;;;;;8.30;100.00;92548.03;5070053;28;20204;-85
2022/04/22 04:57:48;;;;;;;12.77;11.80;;;;;;;8.12;100.00;92557.94;5071258;28;20197;-85
2022/04/22 05:00:14;;;;;;;12.53;11.37;;;;;;;8.16;100.00;92556.38;5086766;28;20180;-82
2022/04/22 05:02:40;;;;;;;13.63;12.63;;;;;;;8.12;100.00;92547.53;5089023;28;20185;-83
2022/04/22 05:05:06;;;;;;;13.77;12.70;;;;;;;8.22;100.00;92546.72;5088718;28;20874;-83
2022/04/22 05:07:55;;;;;;;13.63;12.37;;;;;;;8.25;100.00;92546.22;5071892;28;20213;-84
2022/04/22 05:10:21;;;;;;;14.73;13.43;;;;;;;8.14;100.00;92534.25;5090374;28;20192;-84
2022/04/22 05:12:48;;;;;;;14.60;13.37;;;;;;;8.33;100.00;92524.13;5088106;28;20177;-84
2022/04/22 05:15:14;;;;;;;14.10;13.13;;;;;;;8.31;100.00;92510.59;5088758;28;20208;-81
2022/04/22 05:17:41;;;;;;;14.37;13.30;;;;;;;8.50;100.00;92516.75;5092001;28;20216;-84
2022/04/22 05:20:08;;;;;;;20.77;19.27;;;;;;;8.39;100.00;92482.19;5092559;28;20193;-85
2022/04/22 05:22:34;;;;;;;15.43;14.00;;;;;;;8.68;100.00;92516.91;5092022;28;20305;-84
2022/04/22 05:24:59;;;;;;;12.90;11.90;;;;;;;8.66;100.00;92500.00;5074472;28;20189;-85
2022/04/22 05:27:25;;;;;;;16.70;12.10;;;;;;;8.51;100.00;92485.25;5091843;28;20224;-85
2022/04/22 05:32:36;;;;;;;13.83;12.83;;;;;;;8.60;98.71;92436.03;5093337;28;20358;-83
2022/04/22 05:35:03;;;;;;;14.03;12.83;;;;;;;8.64;98.47;92413.66;5092164;28;20779;-85
2022/04/22 05:37:43;;;;;;;13.30;12.10;;;;;;;8.63;98.04;92412.84;5070513;28;20225;-80
2022/04/22 05:40:10;;;;;;;12.80;11.77;;;;;;;8.62;97.48;92348.88;5071124;28;20193;-79
2022/04/22 05:42:37;;;;;;;12.97;11.97;;;;;;;8.85;95.52;92362.97;5072387;28;20201;-82
2022/04/22 05:45:05;;;;;;;15.03;13.63;;;;;;;9.11;94.18;92391.13;5072101;28;20671;-83
2022/04/22 05:47:30;;;;;;;12.73;11.83;;;;;;;9.18;93.45;92372.56;5070399;28;20217;-81
2022/04/22 05:49:56;;;;;;;13.57;12.47;;;;;;;9.11;93.57;92388.50;5071514;28;20188;-80
2022/04/22 05:52:21;;;;;;;11.77;10.97;;;;;;;9.14;93.19;92393.19;5072640;28;20225;-79
2022/04/22 05:54:47;;;;;;;14.70;13.50;;;;;;;8.72;92.21;92342.78;5070226;28;20228;-82
2022/04/22 05:57:12;;;;;;;14.37;13.07;;;;;;;9.05;93.74;92389.63;5071664;28;20229;-81
2022/04/22 05:59:38;;;;;;;13.00;12.10;;;;;;;9.00;92.01;92357.63;5070312;28;20232;-78
2022/04/22 06:02:05;;;;;;;13.77;12.67;;;;;;;9.31;90.79;92372.69;5070649;28;20213;-81
2022/04/22 06:04:30;;;;;;;14.17;13.07;;;;;;;9.54;89.84;92387.56;5070298;28;20201;-81
2022/04/22 06:06:56;;;;;;;13.70;12.70;;;;;;;9.27;92.00;92381.34;5071319;28;20224;-77
2022/04/22 06:12:06;;;;;;;14.13;12.83;;;;;;;9.38;94.49;92380.19;5068253;28;20272;-79
2022/04/22 06:14:31;;;;;;;15.03;13.53;;;;;;;9.57;94.17;92360.94;5071310;28;20209;-78
2022/04/22 06:16:57;;;;;;;13.03;12.03;;;;;;;9.73;92.46;92353.72;5069735;28;20251;-77
2022/04/22 06:19:22;;;;;;;13.93;12.70;;;;;;;9.78;92.63;92370.09;5071762;28;20212;-76
2022/04/22 06:21:48;;;;;;;12.67;11.80;;;;;;;9.77;89.81;92359.94;5070784;28;20232;-77
2022/04/22 06:24:13;;;;;;;12.13;11.30;;;;;;;9.85;91.28;92340.28;5069677;28;20188;-77
2022/04/22 06:26:38;;;;;;;12.97;12.07;;;;;;;10.38;87.65;92355.50;5069307;28;20281;-76
2022/04/22 06:29:04;;;;;;;12.80;11.77;;;;;;;10.39;86.17;92333.56;5071125;28;20234;-77
2022/04/22 06:31:30;;;;;;;11.40;10.60;;;;;;;10.53;85.97;92337.03;5069081;28;20244;-76
2022/04/22 06:33:56;;;;;;;12.60;11.60;;;;;;;10.49;84.46;92340.47;5071145;28;20277;-77
2022/04/22 06:36:28;;;;;;;13.33;12.37;;;;;;;10.69;83.72;92320.03;5069964;28;20307;-76
2022/04/22 06:38:58;;;;;;;11.90;11.10;;;;;;;10.72;82.63;92329.91;5090541;28;20199;-76
2022/04/22 06:46:54;;;;;;;13.20;12.10;;;;;;;11.09;80.42;92345.50;5089197;28;20240;-75
2022/04/22 06:49:19;;;;;;;13.00;11.90;;;;;;;11.07;79.79;92345.00;5090213;28;20185;-75
2022/04/22 06:51:45;;;;;;;13.87;12.80;;;;;;;11.39;77.68;92359.88;5090111;28;20290;-77
2022/04/22 06:54:11;;;;;;;13.17;12.30;;;;;;;11.22;78.55;92359.66;5089376;28;20225;-75
2022/04/22 06:56:39;;;;;;;15.57;14.37;;;;;;;11.52;77.05;92353.88;5087312;28;21161;-83
2022/04/22 06:59:05;;;;;;;13.13;11.87;;;;;;;12.01;78.05;92354.00;5088913;28;20193;-78
2022/04/22 07:01:31;;;;;;;11.97;11.17;;;;;;;11.88;75.65;92346.13;5089186;28;20239;-84
2022/04/22 07:03:58;;;;;;;11.73;10.93;;;;;;;12.58;74.46;92349.88;5090121;28;20185;-77
2022/04/22 07:06:24;;;;;;;10.60;10.00;;;;;;;12.40;74.33;92348.97;5070823;28;20225;-79
2022/04/22 07:08:50;;;;;;;13.40;12.40;;;;;;;12.74;73.13;92336.16;5090124;28;20193;-80
2022/04/22 07:11:22;;;;;;;11.43;10.47;;;;;;;13.03;72.73;92335.72;5089964;28;20255;-78
2022/04/22 07:13:48;;;;;;;10.40;9.57;;;;;;;13.37;69.26;92314.94;5089079;28;20267;-80
2022/04/22 07:16:16;;;;;;;10.50;9.73;;;;;;;13.70;68.61;92323.25;5090105;28;20231;-78
2022/04/22 07:18:42;;;;;;;10.10;9.53;;;;;;;14.91;63.73;92350.16;5090469;28;20181;-78
2022/04/22 07:21:08;;;;;;;9.60;8.90;;;;;;;13.51;67.99;92304.38;5089696;28;20310;-79
2022/04/22 07:23:34;;;;;;;12.00;11.00;;;;;;;14.54;67.44;92345.53;5089459;28;20193;-79
2022/04/22 07:26:01;;;;;;;11.80;11.00;;;;;;;13.31;69.73;92337.13;5087855;28;20216;-81
2022/04/22 07:28:28;;;;;;;11.30;10.60;;;;;;;14.63;69.57;92356.03;5090022;28;20185;-80
2022/04/22 07:30:56;;;;;;;10.87;10.00;;;;;;;13.81;65.84;92246.59;5087453;28;20227;-79
2022/04/22 07:33:21;;;;;;;11.60;10.80;;;;;;;14.32;67.34;92361.41;5089506;28;20192;-79
2022/04/22 07:35:47;;;;;;;10.03;9.43;;;;;;;13.27;68.16;92362.41;5088364;28;20226;-82
2022/04/22 07:38:13;;;;;;;13.27;12.27;;;;;;;13.54;69.21;92362.22;5088210;28;20253;-83
2022/04/22 07:40:40;;;;;;;11.93;11.03;;;;;;;13.04;68.11;92350.41;5087820;28;20300;-82
2022/04/22 07:48:36;;;;;;;10.97;10.30;;;;;;;13.85;68.09;92352.47;5087949;28;20241;-86
2022/04/22 07:51:01;;;;;;;11.53;10.70;;;;;;;14.51;65.10;92343.50;5087058;28;20220;-87
2022/04/22 07:53:26;;;;;;;11.73;10.93;;;;;;;14.29;63.76;92357.56;5089407;28;20184;-83
2022/04/22 07:55:52;;;;;;;11.90;11.10;;;;;;;14.07;64.35;92360.25;5087199;28;20426;-86
2022/04/22 07:58:17;;;;;;;11.33;10.63;;;;;;;14.37;65.32;92353.38;5090837;28;20202;-83
2022/04/22 08:00:47;;;;;;;11.20;10.40;;;;;;;14.65;62.95;92354.66;5089311;28;20260;-86
2022/04/22 08:03:15;;;;;;;11.77;11.03;;;;;;;15.04;62.36;92382.63;5090327;28;20271;-89
2022/04/22 08:05:41;;;;;;;13.17;12.07;;;;;;;14.66;62.12;92382.47;5088973;28;20227;-79
2022/04/22 08:08:07;;;;;;;10.00;9.40;;;;;;;14.34;62.53;92380.25;5088756;28;20184;-85
2022/04/22 08:10:33;;;;;;;11.20;10.47;;;;;;;14.84;62.29;92394.53;5089499;28;20232;-82
2022/04/22 08:12:58;;;;;;;10.30;9.60;;;;;;;14.91;61.30;92388.81;5089355;28;20196;-83
2022/04/22 08:15:24;;;;;;;11.70;10.80;;;;;;;14.80;62.76;92398.09;5088508;28;20312;-83
2022/04/22 08:17:49;;;;;;;11.67;10.80;;;;;;;14.41;62.65;92386.59;5085368;28;20177;-81
2022/04/22 08:20:15;;;;;;;12.17;11.37;;;;;;;14.31;63.28;92370.38;5085037;28;20176;-81
2022/04/22 08:22:43;;;;;;;10.37;9.77;;;;;;;14.80;64.11;92379.69;5071567;28;20280;-83
2022/04/22 08:25:09;;;;;;;11.43;10.53;;;;;;;15.23;62.18;92390.97;5068507;28;20208;-78
2022/04/22 08:27:35;;;;;;;10.97;10.23;;;;;;;15.57;61.54;92375.13;5088139;28;20279;-82
2022/04/22 08:30:00;;;;;;;11.20;10.53;;;;;;;15.88;60.64;92380.91;5070620;28;20284;-81
2022/04/22 08:32:26;;;;;;;10.57;9.87;;;;;;;15.61;60.44;92370.81;5085640;28;20232;-80
2022/04/22 08:34:51;;;;;;;10.60;9.90;;;;;;;15.52;60.13;92341.09;5083446;28;20212;-80
2022/04/22 08:37:18;;;;;;;13.20;11.87;;;;;;;15.34;60.56;92371.13;5068978;28;20247;-81
2022/04/22 08:39:43;;;;;;;10.93;10.03;;;;;;;15.35;61.02;92370.81;5087299;28;20196;-80
2022/04/22 08:42:12;;;;;;;10.07;9.47;;;;;;;15.42;61.34;92368.53;5086898;28;20303;-81
2022/04/22 08:44:38;;;;;;;10.50;9.90;;;;;;;15.36;61.35;92358.47;5086651;28;20185;-81
2022/04/22 08:50:02;;;;;;;11.53;10.80;;;;;;;15.45;62.61;92340.81;5088051;28;20645;-79
2022/04/22 08:52:33;;;;;;;11.17;10.53;;;;;;;15.94;60.26;92353.31;5074347;28;20224;-81
2022/04/22 08:54:59;;;;;;;11.03;10.40;;;;;;;15.66;59.53;92341.66;5092248;28;20211;-80
2022/04/22 08:57:25;;;;;;;11.20;10.50;;;;;;;15.33;60.02;92343.31;5073327;28;20236;-80
2022/04/22 08:59:51;;;;;;;11.70;10.90;;;;;;;15.47;61.52;92343.91;5091277;28;20201;-79
2022/04/22 09:02:20;;;;;;;10.40;9.47;;;;;;;15.64;60.59;92335.97;5092600;28;20220;-80
2022/04/22 09:04:46;;;;;;;10.43;9.83;;;;;;;16.09;58.49;92345.66;5091530;28;20192;-80
2022/04/22 09:07:18;;;;;;;10.60;10.00;;;;;;;15.93;58.67;92336.75;5091997;28;20280;-81
2022/04/22 09:09:49;;;;;;;10.67;9.97;;;;;;;15.76;58.02;92322.91;5093406;28;20191;-82
2022/04/22 09:12:17;;;;;;;10.73;10.03;;;;;;;16.13;57.92;92324.72;5091316;28;20217;-81
2022/04/22 09:14:49;;;;;;;9.90;9.20;;;;;;;16.18;58.16;92321.91;5091182;28;20230;-80
2022/04/22 09:17:17;;;;;;;10.90;10.20;;;;;;;16.44;58.01;92319.91;5092605;28;20240;-79
2022/04/22 09:19:44;;;;;;;10.60;9.93;;;;;;;16.69;57.50;92315.53;5091403;28;20200;-79
2022/04/22 09:22:10;;;;;;;10.20;9.53;;;;;;;16.48;58.27;92317.41;5091231;28;20223;-82
2022/04/22 09:24:56;;;;;;;11.30;10.57;;;;;;;16.81;58.04;92319.00;5073997;28;20192;-79
2022/04/22 09:27:48;;;;;;;10.37;9.77;;;;;;;16.62;55.22;92320.56;5089710;28;20229;-81
2022/04/22 09:30:13;;;;;;;11.30;10.70;;;;;;;16.55;56.00;92331.59;5088169;28;20200;-80
2022/04/22 09:32:44;;;;;;;10.17;9.67;;;;;;;16.27;55.54;92320.00;5090612;28;20183;-81
2022/04/22 09:35:09;;;;;;;9.30;8.77;;;;;;;16.46;56.99;92330.13;5090670;28;20212;-79
2022/04/22 09:43:25;;;;;;;10.03;9.37;;;;;;;16.95;54.92;92308.19;5092042;28;20195;-83
2022/04/22 09:45:52;;;;;;;9.50;9.00;;;;;;;17.22;55.85;92323.44;5091961;28;20283;-81
2022/04/22 09:48:19;;;;;;;10.83;10.20;;;;;;;17.31;53.85;92316.19;5091991;28;20189;-85
2022/04/22 09:50:52;;;;;;;9.60;9.10;;;;;;;16.91;53.92;92294.88;5073309;28;20236;-75
2022/04/22 09:53:32;;;;;;;10.43;9.80;;;;;;;16.85;53.62;92314.63;5092177;28;20188;-77
2022/04/22 09:56:04;;;;;;;10.07;9.57;;;;;;;16.44;55.84;92293.56;5092057;28;20232;-82
2022/04/22 09:58:29;;;;;;;10.17;9.57;;;;;;;16.73;54.46;92306.66;5092979;28;20237;-78
2022/04/22 10:01:00;;;;;;;9.50;9.00;;;;;;;16.88;54.05;92298.16;5088546;28;20236;-77
2022/04/22 10:03:36;;;;;;;9.47;8.90;;;;;;;16.97;55.52;92296.22;5090341;28;20655;-78
2022/04/22 10:06:03;;;;;;;10.47;9.87;;;;;;;17.00;54.71;92282.38;5091165;28;20224;-79
2022/04/22 10:08:32;;;;;;;10.50;9.70;;;;;;;17.04;54.92;92264.03;5091207;28;20184;-78
2022/04/22 10:11:00;;;;;;;10.23;9.63;;;;;;;17.56;54.32;92281.66;5070157;28;20228;-76
2022/04/22 10:13:33;;;;;;;10.17;9.63;;;;;;;17.83;52.57;92258.34;5090318;28;20266;-72
2022/04/22 10:15:59;;;;;;;10.57;9.87;;;;;;;17.70;52.71;92264.72;5090494;28;20228;-74
2022/04/22 10:18:26;;;;;;;10.70;10.07;;;;;;;17.47;51.80;92254.59;5090266;28;20214;-73
2022/04/22 10:20:54;;;;;;;9.83;9.23;;;;;;;17.67;53.22;92246.88;5090867;28;20310;-72
2022/04/22 10:23:21;;;;;;;10.27;9.47;;;;;;;17.39;52.85;92259.94;5091011;28;20197;-74
2022/04/22 10:25:48;;;;;;;9.60;9.03;;;;;;;17.46;52.64;92253.03;5088854;28;20225;-75
2022/04/22 10:28:15;;;;;;;9.27;8.77;;;;;;;17.43;54.78;92245.00;5090357;28;20185;-73
2022/04/22 10:30:42;;;;;;;9.27;8.80;;;;;;;17.66;52.52;92227.66;5090745;28;20232;-74
2022/04/22 10:33:09;;;;;;;9.37;8.87;;;;;;;17.93;53.79;92231.50;5073524;28;20181;-75
2022/04/22 10:35:44;;;;;;;10.23;9.53;;;;;;;17.94;53.13;92230.38;5088846;28;20258;-74
2022/04/22 10:38:28;;;;;;;10.27;9.57;;;;;;;18.03;53.38;92244.22;5090375;28;20219;-70
2022/04/22 10:40:53;;;;;;;9.27;8.77;;;;;;;17.94;51.75;92227.72;5090941;28;20229;-74
2022/04/22 10:43:19;;;;;;;10.10;9.53;;;;;;;17.93;53.23;92226.19;5090130;28;20233;-74
2022/04/22 10:48:30;;;;;;;9.33;8.63;;;;;;;18.44;52.64;92230.75;5089523;28;20188;-75
2022/04/22 10:51:00;;;;;;;11.47;10.57;;;;;;;18.27;50.92;92217.78;5089984;28;20228;-76
2022/04/22 10:53:28;;;;;;;10.77;10.07;;;;;;;18.25;52.85;92227.91;5087756;28;20213;-75
2022/04/22 10:56:25;;;;;;;9.83;9.27;;;;;;;18.26;51.48;92238.13;5089658;28;20245;-76
2022/04/22 10:59:16;;;;;;;9.63;9.07;;;;;;;18.23;51.57;92232.75;5089321;28;20208;-75
2022/04/22 11:01:42;;;;;;;9.57;8.90;;;;;;;18.17;51.17;92220.88;5061888;28;20285;-75
2022/04/22 11:04:18;;;;;;;9.30;8.60;;;;;;;18.23;53.07;92203.66;5073040;28;20219;-75
2022/04/22 11:06:43;;;;;;;10.83;10.20;;;;;;;18.59;52.33;92214.94;5088888;28;20232;-74
2022/04/22 11:09:09;;;;;;;9.63;8.90;;;;;;;18.55;50.95;92195.56;5089373;28;20763;-75
2022/04/22 11:11:41;;;;;;;10.33;9.63;;;;;;;18.09;50.13;92182.91;5088027;28;20228;-76
2022/04/22 11:14:21;;;;;;;10.00;9.27;;;;;;;18.20;51.32;92180.56;5086232;28;20217;-76
2022/04/22 11:16:47;;;;;;;9.73;9.03;;;;;;;18.24;50.04;92190.13;5077742;28;20229;-76
2022/04/22 11:19:18;;;;;;;8.83;8.33;;;;;;;18.60;50.79;92213.06;5089279;28;21109;-79
2022/04/22 11:21:45;;;;;;;10.27;9.50;;;;;;;18.67;48.96;92223.84;5087979;28;20240;-76
2022/04/22 11:24:18;;;;;;;9.00;8.60;;;;;;;18.46;50.71;92212.69;5088431;28;20225;-76
2022/04/22 11:26:45;;;;;;;10.07;9.57;;;;;;;18.64;48.24;92206.78;5088346;28;20221;-76
2022/04/22 11:29:11;;;;;;;9.87;9.27;;;;;;;18.90;47.75;92228.25;5089799;28;20192;-76
2022/04/22 11:31:39;;;;;;;9.30;8.80;;;;;;;18.93;47.75;92179.19;5088675;28;20227;-76
2022/04/22 11:34:08;;;;;;;10.20;9.67;;;;;;;19.54;46.90;92198.88;5088612;28;20209;-75
2022/04/22 11:36:47;;;;;;;9.83;9.07;;;;;;;19.25;47.02;92191.34;5086357;28;20304;-76
2022/04/22 11:39:22;;;;;;;9.50;9.00;;;;;;;19.19;46.82;92193.47;5089490;28;20201;-75
2022/04/22 11:41:57;;;;;;;9.63;8.93;;;;;;;19.31;47.59;92187.34;5087968;28;20311;-74
2022/04/22 11:44:24;;;;;;;9.50;9.00;;;;;;;19.50;46.84;92182.16;5089156;28;20185;-73
2022/04/22 11:46:53;;;;;;;9.47;8.87;;;;;;;19.76;46.57;92178.94;5087715;28;20726;-75
2022/04/22 11:49:19;;;;;;;9.60;9.07;;;;;;;19.91;45.50;92160.38;5087299;28;20187;-75
2022/04/22 11:51:46;;;;;;;9.80;9.30;;;;;;;19.89;46.33;92162.59;5088620;28;20223;-75
2022/04/22 11:54:20;;;;;;;9.67;8.97;;;;;;;19.84;46.42;92164.75;5088745;28;20225;-74
2022/04/22 11:56:45;;;;;;;10.10;9.60;;;;;;;19.83;46.69;92163.97;5087046;28;20229;-73
2022/04/22 11:59:10;;;;;;;9.70;9.00;;;;;;;19.55;45.45;92142.16;5068351;28;20167;-74
2022/04/22 12:10:00;;;;;;;9.63;9.03;;;;;;;19.32;45.65;92151.81;5088895;28;20188;-74
2022/04/22 12:12:28;;;;;;;10.23;9.67;;;;;;;19.11;46.87;92164.53;5087360;28;20206;-75
2022/04/22 12:15:02;;;;;;;9.90;9.40;;;;;;;18.75;49.39;92146.22;5086800;28;20202;-74
2022/04/22 12:17:28;;;;;;;9.67;9.03;;;;;;;19.14;47.33;92155.91;5087213;28;20226;-74
2022/04/22 12:19:53;;;;;;;9.90;9.40;;;;;;;19.29;47.24;92147.22;5087880;28;20239;-72
2022/04/22 12:22:20;;;;;;;9.70;9.10;;;;;;;19.09;46.33;92129.69;5088022;28;20222;-73
2022/04/22 12:25:08;;;;;;;9.27;8.77;;;;;;;19.21;48.45;92132.25;5085501;28;20178;-72